100LL.CA
Aviation Fuel Pricing for Canadians
Please upgrade your browser - Tested with IE9, FireFox, Chrome, Safari

Fuel Airports Other Help
Prices Economy Info List METAR/TAF Kneeboard Help

Enter a list of
Airport Idents:
Sort Method: As Entered    By Ident   

CYVR
METAR CYVR 231400Z 22003KT 30SM SKC 14/13 A2982 RMK SLP098 DENSITY ALT 100FT
TAF CYVR 231138Z 2312/2418 VRB03KT P6SM SKC FM231600 26008KT P6SM FEW120 FM240300 12008KT P6SM SCT100 FM241200 10012KT P6SM SCT015 RMK NXT FCST BY 231500Z
CYXX
METAR CYXX 231400Z 22005KT 30SM SKC 13/11 A2981 RMK SLP097 DENSITY ALT 200FT
TAF CYXX 231138Z 2312/2412 VRB03KT P6SM SKC BECMG 2318/2320 22010KT FM240600 22005KT P6SM SCT100 FM240900 22005KT P6SM SCT030 BKN070 RMK NXT FCST BY 231800Z
KBLI
METAR KBLI 231353Z 17005KT 10SM CLR 13/10 A2982 RMK AO2 SLP102 T01330100
TAF KBLI 231132Z 2312/2412 18004KT P6SM SKC FM231800 20007KT P6SM SCT120 SCT250 FM240600 17011KT P6SM SCT100 BKN250 FM241100 17011KT P6SM BKN022


Please Send Updates!

Desktop Version ]  [ Mobile Version ]  [ Disclaimer ]